createdAt,value
2024-02-02T00:00:33.402Z,79.98
2024-02-02T00:02:59.862Z,79.43
2024-02-02T00:05:26.222Z,79.54
2024-02-02T00:07:52.558Z,79.95
2024-02-02T00:10:18.970Z,80.12
2024-02-02T00:12:45.411Z,79.64
2024-02-02T00:15:11.882Z,80.25
2024-02-02T00:17:38.267Z,79.55
2024-02-02T00:20:05.065Z,79.72
2024-02-02T00:22:31.483Z,79.61
2024-02-02T00:24:57.829Z,79.02
2024-02-02T00:27:24.242Z,79.18
2024-02-02T00:29:50.614Z,79.28
2024-02-02T00:32:17.038Z,79.90
2024-02-02T00:34:43.574Z,79.54
2024-02-02T00:37:10.135Z,79.03
2024-02-02T00:39:39.287Z,79.48
2024-02-02T00:42:05.732Z,79.13
2024-02-02T00:44:32.147Z,79.04
2024-02-02T00:46:58.512Z,79.12
2024-02-02T00:49:24.955Z,79.03
2024-02-02T00:51:51.655Z,78.42
2024-02-02T00:54:18.265Z,79.12
2024-02-02T00:56:44.660Z,79.63
2024-02-02T00:59:11.104Z,79.38
2024-02-02T01:01:38.056Z,79.09
2024-02-02T01:04:04.609Z,79.21
2024-02-02T01:06:31.134Z,80.04
2024-02-02T01:08:57.580Z,80.14
2024-02-02T01:11:24.190Z,79.76
2024-02-02T01:13:50.582Z,80.18
2024-02-02T01:16:16.987Z,80.16
2024-02-02T01:18:43.603Z,79.87
2024-02-02T01:21:10.131Z,80.16
2024-02-02T01:23:36.566Z,80.82
2024-02-02T01:26:02.942Z,80.91
2024-02-02T01:28:29.405Z,80.86
2024-02-02T01:30:55.735Z,81.25
2024-02-02T01:33:22.192Z,81.17
2024-02-02T01:35:48.782Z,80.68
2024-02-02T01:38:15.230Z,81.09
2024-02-02T01:40:41.612Z,81.17
2024-02-02T01:43:07.934Z,81.35
2024-02-02T01:45:34.401Z,80.82
2024-02-02T01:48:00.888Z,81.39
2024-02-02T01:50:27.330Z,81.58
2024-02-02T01:52:53.822Z,81.40
2024-02-02T01:55:20.407Z,81.22
2024-02-02T01:57:47.328Z,81.05
2024-02-02T02:00:14.158Z,80.94
2024-02-02T02:02:40.620Z,81.31
2024-02-02T02:05:07.623Z,80.89
2024-02-02T02:07:34.114Z,81.78
2024-02-02T02:10:00.637Z,81.13
2024-02-02T02:12:27.143Z,81.72
2024-02-02T02:14:53.734Z,81.28
2024-02-02T02:17:20.123Z,81.81
2024-02-02T02:19:50.213Z,81.33
2024-02-02T02:22:16.612Z,81.24
2024-02-02T02:24:42.996Z,81.05
2024-02-02T02:27:09.709Z,81.76
2024-02-02T02:29:36.172Z,81.79
2024-02-02T02:32:02.724Z,81.57
2024-02-02T02:34:29.299Z,81.38
2024-02-02T02:36:55.940Z,81.25
2024-02-02T02:39:22.736Z,81.33
2024-02-02T02:41:49.136Z,81.26
2024-02-02T02:44:15.579Z,82.13
2024-02-02T02:46:42.265Z,81.73
2024-02-02T02:49:08.803Z,81.41
2024-02-02T02:51:35.296Z,81.74
2024-02-02T02:54:01.724Z,82.24
2024-02-02T02:56:28.114Z,81.42
2024-02-02T02:58:54.513Z,81.90
2024-02-02T03:01:21.109Z,80.90
2024-02-02T03:03:47.511Z,81.46
2024-02-02T03:06:14.020Z,81.30
2024-02-02T03:08:40.498Z,81.82
2024-02-02T03:11:06.842Z,81.43
2024-02-02T03:13:33.177Z,81.21
2024-02-02T03:15:59.505Z,80.63
2024-02-02T03:18:25.989Z,81.00
2024-02-02T03:20:52.442Z,80.02
2024-02-02T03:23:18.905Z,80.17
2024-02-02T03:25:45.240Z,80.73
2024-02-02T03:28:11.662Z,81.14
2024-02-02T03:30:38.087Z,79.87
2024-02-02T03:33:04.770Z,80.13
2024-02-02T03:35:31.173Z,80.24
2024-02-02T03:37:57.540Z,80.11
2024-02-02T03:40:23.880Z,79.98
2024-02-02T03:42:50.208Z,79.80
2024-02-02T03:45:16.632Z,79.42
2024-02-02T03:47:43.041Z,79.41
2024-02-02T03:50:09.848Z,79.51
2024-02-02T03:52:36.213Z,79.34
2024-02-02T03:55:02.668Z,79.15
2024-02-02T03:57:29.246Z,80.00
2024-02-02T03:59:55.695Z,79.81
2024-02-02T04:02:22.152Z,78.90
2024-02-02T04:04:48.567Z,78.89
2024-02-02T04:07:14.942Z,78.98
2024-02-02T04:09:41.398Z,79.70
2024-02-02T04:12:07.900Z,80.04
2024-02-02T04:14:34.465Z,79.40
2024-02-02T04:17:00.833Z,79.61
2024-02-02T04:19:27.329Z,79.38
2024-02-02T04:21:53.689Z,79.70
2024-02-02T04:24:20.079Z,79.52
2024-02-02T04:26:46.468Z,79.73
2024-02-02T04:29:12.971Z,78.67
2024-02-02T04:31:39.346Z,78.79
2024-02-02T04:34:05.839Z,78.49
2024-02-02T04:36:32.361Z,78.52
2024-02-02T04:38:58.828Z,78.73
2024-02-02T04:41:26.084Z,79.27
2024-02-02T04:43:52.690Z,79.23
2024-02-02T04:46:19.083Z,78.57
2024-02-02T04:48:45.668Z,79.04
2024-02-02T04:51:12.256Z,79.25
2024-02-02T04:53:38.632Z,79.43
2024-02-02T04:56:05.207Z,78.92
2024-02-02T04:58:31.578Z,78.87
2024-02-02T05:00:57.964Z,79.25
2024-02-02T05:03:24.521Z,78.80
2024-02-02T05:05:50.858Z,79.75
2024-02-02T05:08:17.294Z,78.85
2024-02-02T05:10:43.690Z,79.55
2024-02-02T05:13:10.088Z,79.53
2024-02-02T05:15:36.537Z,79.12
2024-02-02T05:18:03.092Z,78.90
2024-02-02T05:20:29.564Z,79.56
2024-02-02T05:22:55.929Z,78.76
2024-02-02T05:25:22.339Z,79.07
2024-02-02T05:27:48.832Z,79.28
2024-02-02T05:30:15.571Z,79.46
2024-02-02T05:32:42.219Z,78.69
2024-02-02T05:35:08.920Z,78.97
2024-02-02T05:37:35.422Z,78.64
2024-02-02T05:40:01.905Z,78.93
2024-02-02T05:42:28.664Z,78.63
2024-02-02T05:44:55.183Z,78.93
2024-02-02T05:47:21.649Z,78.66
2024-02-02T05:49:48.120Z,78.63
2024-02-02T05:52:14.542Z,78.46
2024-02-02T05:54:40.998Z,79.41
2024-02-02T05:57:07.459Z,79.47
2024-02-02T05:59:33.891Z,79.37
2024-02-02T06:02:00.480Z,78.42
2024-02-02T06:04:26.907Z,79.04
2024-02-02T06:06:53.457Z,79.23
2024-02-02T06:09:19.918Z,79.10
2024-02-02T06:11:46.256Z,78.13
2024-02-02T06:14:12.741Z,78.02
2024-02-02T06:16:39.078Z,78.62
2024-02-02T06:19:05.524Z,78.91
2024-02-02T06:21:32.077Z,78.71
2024-02-02T06:23:58.762Z,78.68
2024-02-02T06:26:25.188Z,77.85
2024-02-02T06:28:51.519Z,77.87
2024-02-02T06:31:17.926Z,78.22
2024-02-02T06:33:44.352Z,78.67
2024-02-02T06:36:10.864Z,77.81
2024-02-02T06:38:37.347Z,77.69
2024-02-02T06:41:03.766Z,78.37
2024-02-02T06:43:30.157Z,78.25
2024-02-02T06:45:56.804Z,78.37
2024-02-02T06:48:23.390Z,78.29
2024-02-02T06:50:49.817Z,77.90
2024-02-02T06:53:16.217Z,78.48
2024-02-02T06:55:43.336Z,77.68
2024-02-02T06:58:38.820Z,77.11
2024-02-02T07:01:05.721Z,77.91
2024-02-02T07:03:33.140Z,78.70
2024-02-02T07:06:00.307Z,78.31
2024-02-02T07:08:27.174Z,78.18
2024-02-02T07:11:05.983Z,77.49
2024-02-02T07:13:46.149Z,78.12
2024-02-02T07:16:27.058Z,77.37
2024-02-02T07:18:53.779Z,78.52
2024-02-02T07:21:20.387Z,78.32
2024-02-02T07:23:49.257Z,78.25
2024-02-02T07:26:32.986Z,78.08
2024-02-02T07:29:04.394Z,77.65
2024-02-02T07:31:46.053Z,77.07
2024-02-02T07:34:40.002Z,77.15
2024-02-02T07:37:10.400Z,77.08
2024-02-02T07:39:37.012Z,76.91
2024-02-02T07:44:53.793Z,76.04
2024-02-02T07:47:20.125Z,76.63
2024-02-02T07:49:46.532Z,76.09
2024-02-02T07:52:12.884Z,76.55
2024-02-02T07:54:39.284Z,76.43
2024-02-02T07:57:05.681Z,74.57
2024-02-02T07:59:32.079Z,75.16
2024-02-02T08:12:45.724Z,74.95
2024-02-02T08:17:54.192Z,74.03
2024-02-02T08:23:01.721Z,75.01
2024-02-02T08:25:30.295Z,74.33
2024-02-02T08:27:57.274Z,74.75
2024-02-02T08:30:23.738Z,74.21
2024-02-02T08:44:27.917Z,73.37
2024-02-02T08:46:54.263Z,71.85
2024-02-02T08:49:41.784Z,71.46
2024-02-02T08:52:13.073Z,70.96
2024-02-02T08:54:46.711Z,70.79
2024-02-02T08:57:30.683Z,72.04
2024-02-02T08:59:58.355Z,71.98
2024-02-02T09:02:52.844Z,72.25
2024-02-02T09:05:21.259Z,73.16
2024-02-02T09:07:54.055Z,73.21
2024-02-02T09:10:40.334Z,72.25
2024-02-02T09:13:06.694Z,71.80
2024-02-02T09:15:35.927Z,72.34
2024-02-02T09:18:02.882Z,72.02
2024-02-02T09:25:46.435Z,72.41
2024-02-02T09:28:25.253Z,73.63
2024-02-02T09:30:58.317Z,72.79
2024-02-02T09:33:47.867Z,74.32
2024-02-02T09:36:15.155Z,74.53
2024-02-02T09:38:53.712Z,74.68
2024-02-02T09:42:05.870Z,74.82
2024-02-02T09:44:46.073Z,75.12
2024-02-02T09:47:37.452Z,75.86
2024-02-02T09:50:16.816Z,75.55
2024-02-02T09:53:25.041Z,75.90
2024-02-02T09:56:05.954Z,75.20
2024-02-02T09:59:11.018Z,75.18
2024-02-02T10:01:37.335Z,74.03
2024-02-02T10:04:22.564Z,73.75
2024-02-02T10:07:23.311Z,74.02
2024-02-02T10:10:07.180Z,73.41
2024-02-02T10:13:21.420Z,74.31
2024-02-02T10:15:50.739Z,74.85
2024-02-02T10:18:36.111Z,74.81
2024-02-02T10:21:24.120Z,75.30
2024-02-02T10:24:11.622Z,75.16
2024-02-02T10:27:18.119Z,75.81
2024-02-02T10:30:18.564Z,75.91
2024-02-02T10:33:16.004Z,75.34
2024-02-02T10:35:48.445Z,75.02
2024-02-02T10:38:33.767Z,74.84
2024-02-02T10:41:19.355Z,74.75
2024-02-02T10:43:51.625Z,74.99
2024-02-02T10:46:43.673Z,74.53
2024-02-02T10:49:44.874Z,74.73
2024-02-02T10:52:40.805Z,73.96
2024-02-02T10:55:22.224Z,73.45
2024-02-02T10:58:24.272Z,73.55
2024-02-02T11:06:41.755Z,73.76
2024-02-02T11:09:11.151Z,73.46
2024-02-02T11:11:44.797Z,75.43
2024-02-02T11:14:13.783Z,74.38
2024-02-02T11:16:58.902Z,72.56
2024-02-02T11:19:46.230Z,71.78
2024-02-02T11:22:19.501Z,70.34
2024-02-02T11:24:51.782Z,70.90
2024-02-02T11:27:30.998Z,70.53
2024-02-02T11:30:06.193Z,71.56
2024-02-02T11:33:07.594Z,70.21
2024-02-02T11:35:56.697Z,71.08
2024-02-02T11:38:41.565Z,70.86
2024-02-02T11:41:15.293Z,70.75
2024-02-02T11:43:43.265Z,71.12
2024-02-02T11:46:11.862Z,71.19
2024-02-02T11:48:43.223Z,70.84
2024-02-02T11:51:10.790Z,71.00
2024-02-02T11:54:02.267Z,70.88
2024-02-02T11:56:34.053Z,71.32
2024-02-02T11:59:09.300Z,71.61
2024-02-02T12:02:13.178Z,70.21
2024-02-02T12:04:48.496Z,70.23
2024-02-02T12:07:31.953Z,69.90
2024-02-02T12:10:02.830Z,70.01
2024-02-02T12:12:34.841Z,69.77
2024-02-02T12:15:01.359Z,69.58
2024-02-02T12:17:28.665Z,70.18
2024-02-02T12:19:55.364Z,69.45
2024-02-02T12:22:21.813Z,68.15
2024-02-02T12:24:48.235Z,68.52
2024-02-02T12:27:15.634Z,68.26
2024-02-02T12:29:42.169Z,68.25
2024-02-02T12:32:11.975Z,67.29
2024-02-02T12:34:38.755Z,66.75
2024-02-02T12:37:05.494Z,68.16
2024-02-02T12:39:32.111Z,67.09
2024-02-02T12:41:59.311Z,67.62
2024-02-02T12:44:25.788Z,67.17
2024-02-02T12:46:52.121Z,66.30
2024-02-02T12:49:18.667Z,67.42
2024-02-02T12:51:45.220Z,65.85
2024-02-02T12:54:12.283Z,65.58
2024-02-02T12:56:38.952Z,64.75
2024-02-02T12:59:06.683Z,65.31
2024-02-02T13:01:33.520Z,64.92
2024-02-02T13:03:59.988Z,63.98
2024-02-02T13:06:26.810Z,65.37
2024-02-02T13:08:53.297Z,64.89
2024-02-02T13:11:20.981Z,62.95
2024-02-02T13:13:47.339Z,63.96
2024-02-02T13:16:23.832Z,63.84
2024-02-02T13:18:50.277Z,63.46
2024-02-02T13:21:27.099Z,62.61
2024-02-02T13:23:57.779Z,63.14
2024-02-02T13:26:39.694Z,62.15
2024-02-02T13:29:06.366Z,62.93
2024-02-02T13:31:32.997Z,62.25
2024-02-02T13:34:00.294Z,63.27
2024-02-02T13:36:27.243Z,62.12
2024-02-02T13:39:00.764Z,61.94
2024-02-02T13:41:28.415Z,61.73
2024-02-02T13:44:01.859Z,61.34
2024-02-02T13:46:29.409Z,61.31
2024-02-02T13:48:55.924Z,60.74
2024-02-02T13:54:10.850Z,61.40
2024-02-02T13:56:37.295Z,61.13
2024-02-02T13:59:03.648Z,60.61
2024-02-02T14:01:30.006Z,62.00
2024-02-02T14:03:56.578Z,60.54
2024-02-02T14:06:23.403Z,61.28
2024-02-02T14:08:51.174Z,60.96
2024-02-02T14:11:25.230Z,60.14
2024-02-02T14:13:52.723Z,60.95
2024-02-02T14:16:19.670Z,60.37
2024-02-02T14:18:46.940Z,61.09
2024-02-02T14:21:14.029Z,60.84
2024-02-02T14:23:40.376Z,60.45
2024-02-02T14:26:09.921Z,60.67
2024-02-02T14:28:36.266Z,60.69
2024-02-02T14:31:02.667Z,60.37
2024-02-02T14:33:29.223Z,59.89
2024-02-02T14:35:55.621Z,61.02
2024-02-02T14:38:22.044Z,61.75
2024-02-02T14:40:48.371Z,61.88
2024-02-02T14:43:15.281Z,61.77
2024-02-02T14:45:41.721Z,61.95
2024-02-02T14:48:08.856Z,62.39
2024-02-02T14:50:35.285Z,62.06
2024-02-02T14:53:01.869Z,61.08
2024-02-02T14:55:29.175Z,62.15
2024-02-02T14:57:57.011Z,62.17
2024-02-02T15:00:23.848Z,62.06
2024-02-02T15:02:50.215Z,62.10
2024-02-02T15:05:16.838Z,62.27
2024-02-02T15:07:43.316Z,62.83
2024-02-02T15:10:11.153Z,61.55
2024-02-02T15:12:37.530Z,62.83
2024-02-02T15:15:04.270Z,62.52
2024-02-02T15:17:30.781Z,62.99
2024-02-02T15:19:57.194Z,62.46
2024-02-02T15:22:23.601Z,62.96
2024-02-02T15:24:49.974Z,63.24
2024-02-02T15:27:16.410Z,64.07
2024-02-02T15:29:43.192Z,63.07
2024-02-02T15:32:09.541Z,63.73
2024-02-02T15:34:36.055Z,63.22
2024-02-02T15:37:02.675Z,63.01
2024-02-02T15:39:37.280Z,63.15
2024-02-02T15:42:05.034Z,63.11
2024-02-02T15:44:31.399Z,62.81
2024-02-02T15:46:57.739Z,63.36
2024-02-02T15:49:24.239Z,63.71
2024-02-02T15:51:50.667Z,64.01
2024-02-02T15:54:17.222Z,63.85
2024-02-02T15:56:43.588Z,63.00
2024-02-02T15:59:11.023Z,64.05
2024-02-02T16:01:37.922Z,63.55
2024-02-02T16:04:04.468Z,63.47
2024-02-02T16:06:31.365Z,63.46
2024-02-02T16:08:57.701Z,63.25
2024-02-02T16:11:24.096Z,63.39
2024-02-02T16:13:50.435Z,63.43
2024-02-02T16:16:16.773Z,64.60
2024-02-02T16:18:43.315Z,64.13
2024-02-02T16:21:09.757Z,63.59
2024-02-02T16:23:36.128Z,63.29
2024-02-02T16:26:02.571Z,64.08
2024-02-02T16:28:29.151Z,64.38
2024-02-02T16:30:55.547Z,63.80
2024-02-02T16:33:22.201Z,63.59
2024-02-02T16:35:48.915Z,63.83
2024-02-02T16:38:16.485Z,63.14
2024-02-02T16:40:42.866Z,62.64
2024-02-02T16:43:09.400Z,63.12
2024-02-02T16:45:35.908Z,63.39
2024-02-02T16:48:02.301Z,62.65
2024-02-02T16:50:28.661Z,63.14
2024-02-02T16:52:55.019Z,62.39
2024-02-02T16:55:21.385Z,62.34
2024-02-02T16:57:47.965Z,62.99
2024-02-02T17:00:14.686Z,62.93
2024-02-02T17:02:41.023Z,62.95
2024-02-02T17:05:07.728Z,63.15
2024-02-02T17:07:34.187Z,62.98
2024-02-02T17:10:00.791Z,61.30
2024-02-02T17:12:27.189Z,61.50
2024-02-02T17:14:53.556Z,61.67
2024-02-02T17:17:19.966Z,61.40
2024-02-02T17:19:46.380Z,59.97
2024-02-02T17:22:12.809Z,60.56
2024-02-02T17:24:40.612Z,59.83
2024-02-02T17:27:07.012Z,60.12
2024-02-02T17:29:33.502Z,60.67
2024-02-02T17:31:59.852Z,60.10
2024-02-02T17:34:26.437Z,59.54
2024-02-02T17:36:52.950Z,60.35
2024-02-02T17:39:19.482Z,59.99
2024-02-02T17:41:45.841Z,59.99
2024-02-02T17:44:12.169Z,60.21
2024-02-02T17:46:38.544Z,60.83
2024-02-02T17:49:04.954Z,60.24
2024-02-02T17:51:31.906Z,60.76
2024-02-02T17:53:58.274Z,60.64
2024-02-02T17:56:24.652Z,60.38
2024-02-02T17:58:51.067Z,60.94
2024-02-02T18:01:17.435Z,60.30
2024-02-02T18:03:43.921Z,60.07
2024-02-02T18:06:10.328Z,59.95
2024-02-02T18:08:37.156Z,60.08
2024-02-02T18:11:03.638Z,59.92
2024-02-02T18:13:31.025Z,59.88
2024-02-02T18:15:57.468Z,60.01
2024-02-02T18:18:23.956Z,59.02
2024-02-02T18:20:50.387Z,59.62
2024-02-02T18:23:16.777Z,59.63
2024-02-02T18:25:43.158Z,59.47
2024-02-02T18:28:09.620Z,60.00
2024-02-02T18:30:36.119Z,59.85
2024-02-02T18:33:02.600Z,60.26
2024-02-02T18:35:29.048Z,60.42
2024-02-02T18:37:55.438Z,60.05
2024-02-02T18:40:21.782Z,60.24
2024-02-02T18:42:48.310Z,60.53
2024-02-02T18:45:14.860Z,60.68
2024-02-02T18:47:41.302Z,60.88
2024-02-02T18:50:08.147Z,60.99
2024-02-02T18:52:34.551Z,60.88
2024-02-02T18:55:00.902Z,61.25
2024-02-02T18:57:27.250Z,61.53
2024-02-02T18:59:53.639Z,61.86
2024-02-02T19:02:20.067Z,61.44
2024-02-02T19:04:46.498Z,61.49
2024-02-02T19:07:13.040Z,61.61
2024-02-02T19:09:39.565Z,61.41
2024-02-02T19:12:06.263Z,61.88
2024-02-02T19:14:32.683Z,62.17
2024-02-02T19:17:00.221Z,62.14
2024-02-02T19:19:26.683Z,62.38
2024-02-02T19:21:53.239Z,62.51
2024-02-02T19:24:19.720Z,63.23
2024-02-02T19:26:46.132Z,63.61
2024-02-02T19:29:12.627Z,63.84
2024-02-02T19:31:39.086Z,63.85
2024-02-02T19:34:06.411Z,64.36
2024-02-02T19:36:33.008Z,64.48
2024-02-02T19:39:00.513Z,64.28
2024-02-02T19:41:31.806Z,64.62
2024-02-02T19:46:36.408Z,64.45
2024-02-02T19:49:03.408Z,64.69
2024-02-02T19:51:30.291Z,64.55
2024-02-02T19:53:56.809Z,64.56
2024-02-02T19:56:23.573Z,64.92
2024-02-02T19:58:50.622Z,65.09
2024-02-02T20:01:21.388Z,65.03
2024-02-02T20:03:49.138Z,64.88
2024-02-02T20:06:16.621Z,64.59
2024-02-02T20:08:43.973Z,65.31
2024-02-02T20:11:18.639Z,64.86
2024-02-02T20:13:46.063Z,64.75
2024-02-02T20:16:17.311Z,64.64
2024-02-02T20:18:44.625Z,65.30
2024-02-02T20:21:15.459Z,65.43
2024-02-02T20:23:42.051Z,66.06
2024-02-02T20:26:08.445Z,65.83
2024-02-02T20:28:34.837Z,65.90
2024-02-02T20:33:43.335Z,66.07
2024-02-02T20:36:10.701Z,66.36
2024-02-02T20:38:37.656Z,66.51
2024-02-02T20:59:50.710Z,68.34
2024-02-02T21:02:17.107Z,68.36
2024-02-02T21:04:43.524Z,67.74
2024-02-02T21:07:10.292Z,68.17
2024-02-02T21:09:39.902Z,68.40
2024-02-02T21:20:14.848Z,68.80
2024-02-02T21:36:10.708Z,70.77
2024-02-02T21:38:37.085Z,69.65
2024-02-02T21:41:03.510Z,70.86
2024-02-02T21:43:29.855Z,69.24
2024-02-02T21:45:56.346Z,69.23
2024-02-02T21:48:23.172Z,69.11
2024-02-02T21:50:49.609Z,69.98
2024-02-02T21:53:16.002Z,68.92
2024-02-02T21:55:42.712Z,68.87
2024-02-02T21:58:09.077Z,68.32
2024-02-02T22:00:35.990Z,68.83
2024-02-02T22:03:03.540Z,68.81
2024-02-02T22:05:29.951Z,68.86
2024-02-02T22:07:56.411Z,69.11
2024-02-02T22:10:22.783Z,68.93
2024-02-02T22:12:49.192Z,69.33
2024-02-02T22:15:15.756Z,69.01
2024-02-02T22:17:42.182Z,69.38
2024-02-02T22:20:09.221Z,69.59
2024-02-02T22:22:35.603Z,69.68
2024-02-02T22:25:01.924Z,69.72
2024-02-02T22:27:31.351Z,69.99
2024-02-02T22:30:00.457Z,70.17
2024-02-02T22:32:26.885Z,70.22
2024-02-02T22:34:53.308Z,70.33
2024-02-02T22:37:19.713Z,70.73
2024-02-02T22:39:46.111Z,70.77
2024-02-02T22:42:12.611Z,70.71
2024-02-02T22:44:38.989Z,70.63
2024-02-02T22:47:05.609Z,71.43
2024-02-02T22:49:32.068Z,70.33
2024-02-02T22:51:58.677Z,71.62
2024-02-02T22:54:25.058Z,71.30
2024-02-02T22:56:51.441Z,71.31
2024-02-02T22:59:17.824Z,71.26
2024-02-02T23:01:44.196Z,71.36
2024-02-02T23:04:10.728Z,71.37
2024-02-02T23:06:37.320Z,71.97
2024-02-02T23:09:04.196Z,71.69
2024-02-02T23:11:30.567Z,71.78
2024-02-02T23:13:56.974Z,72.25
2024-02-02T23:16:23.570Z,72.13
2024-02-02T23:18:50.211Z,71.91
2024-02-02T23:21:16.797Z,72.76
2024-02-02T23:23:43.327Z,72.27
2024-02-02T23:26:13.074Z,72.58
2024-02-02T23:28:39.710Z,72.81
2024-02-02T23:31:06.245Z,72.61
2024-02-02T23:33:32.665Z,73.02
2024-02-02T23:35:59.180Z,73.32
2024-02-02T23:38:25.589Z,72.97
2024-02-02T23:40:51.922Z,73.10
2024-02-02T23:43:18.317Z,73.46
2024-02-02T23:45:44.772Z,73.70
2024-02-02T23:48:11.318Z,73.59
2024-02-02T23:50:37.784Z,73.91
2024-02-02T23:53:04.280Z,73.89
2024-02-02T23:55:30.696Z,74.92
2024-02-02T23:57:57.026Z,74.74
